Time;durP1;ratioP1;P1;durP2;ratioP2;P2;SDS_P1;SDS_P2;PMS_P1;PMS_P2;Temp;Humidity;BMP_temperature;BMP_pressure;BME280_temperature;BME280_humidity;BME280_pressure;Samples;Min_cycle;Max_cycle;Signal;HPM_P1;HPM_P2
2023/09/12 00:01:06;;;;;;;68.00;61.10;;;22.50;99.90;;;;;;5030965;28;20435;-62
2023/09/12 00:03:32;;;;;;;65.30;58.97;;;21.70;99.90;;;;;;5030156;28;20052;-61
2023/09/12 00:05:59;;;;;;;66.05;59.75;;;21.70;99.90;;;;;;5033167;28;20076;-62
2023/09/12 00:08:25;;;;;;;68.93;62.10;;;21.60;99.90;;;;;;5026421;28;20033;-62
2023/09/12 00:11:10;;;;;;;65.60;59.47;;;22.20;99.90;;;;;;5029525;28;20115;-62
2023/09/12 00:13:37;;;;;;;67.23;60.83;;;22.40;99.90;;;;;;5028428;28;20426;-61
2023/09/12 00:16:03;;;;;;;66.50;59.63;;;22.20;99.90;;;;;;5029382;28;20045;-62
2023/09/12 00:18:28;;;;;;;66.47;59.90;;;22.30;99.90;;;;;;5027464;28;20099;-61
2023/09/12 00:20:54;;;;;;;69.80;63.08;;;22.30;99.90;;;;;;5027109;28;20073;-62
2023/09/12 00:23:22;;;;;;;65.65;59.38;;;21.90;99.90;;;;;;5030964;28;20408;-62
2023/09/12 00:25:50;;;;;;;67.05;60.72;;;22.30;99.90;;;;;;5029194;28;20459;-62
2023/09/12 00:28:15;;;;;;;66.35;60.03;;;22.00;99.90;;;;;;5028435;28;20041;-61
2023/09/12 00:30:41;;;;;;;66.28;59.75;;;22.30;99.90;;;;;;5029265;28;20094;-61
2023/09/12 00:33:06;;;;;;;65.88;59.50;;;21.40;99.90;;;;;;5029227;28;20056;-61
2023/09/12 00:35:32;;;;;;;66.78;60.35;;;21.40;99.90;;;;;;5029361;28;20068;-62
2023/09/12 00:37:57;;;;;;;68.15;61.50;;;21.60;99.90;;;;;;5029387;28;20038;-62
2023/09/12 00:40:23;;;;;;;66.60;60.28;;;21.60;99.90;;;;;;5036484;28;20094;-61
2023/09/12 00:42:48;;;;;;;68.38;61.58;;;21.60;99.90;;;;;;5032486;28;20034;-60
2023/09/12 00:45:14;;;;;;;65.85;59.33;;;21.60;99.90;;;;;;5033790;28;20077;-60
2023/09/12 00:47:40;;;;;;;67.05;60.13;;;22.20;99.90;;;;;;5026108;28;20033;-60
2023/09/12 00:50:07;;;;;;;64.28;58.13;;;21.40;99.90;;;;;;5033467;28;20041;-61
2023/09/12 00:52:36;;;;;;;63.17;57.13;;;21.50;99.90;;;;;;5033146;28;20045;-60
2023/09/12 00:55:02;;;;;;;65.97;59.65;;;21.90;99.90;;;;;;5031801;28;20043;-60
2023/09/12 00:57:30;;;;;;;64.22;58.13;;;22.20;99.90;;;;;;5032496;28;20041;-60
2023/09/12 00:59:57;;;;;;;65.78;59.58;;;21.40;99.90;;;;;;5031285;28;20065;-60
2023/09/12 01:02:24;;;;;;;66.13;59.58;;;21.90;99.90;;;;;;5034249;28;20045;-60
2023/09/12 01:04:49;;;;;;;65.88;59.33;;;21.30;99.90;;;;;;5041313;28;20121;-60
2023/09/12 01:07:15;;;;;;;67.45;60.92;;;21.80;99.90;;;;;;5043329;28;20132;-61
2023/09/12 01:09:41;;;;;;;65.95;59.53;;;21.30;99.90;;;;;;5013205;28;20121;-60
2023/09/12 01:12:07;;;;;;;67.97;61.55;;;22.00;99.90;;;;;;5046220;28;20491;-60
2023/09/12 01:14:32;;;;;;;69.82;62.80;;;21.60;99.90;;;;;;5033101;28;20051;-60
2023/09/12 01:16:59;;;;;;;66.80;60.10;;;21.70;99.90;;;;;;5032966;28;20037;-61
2023/09/12 01:19:25;;;;;;;64.97;58.10;;;21.30;99.90;;;;;;5031328;28;20106;-60
2023/09/12 01:22:25;;;;;;;71.25;63.80;;;21.90;99.90;;;;;;5033080;28;20045;-60
2023/09/12 01:25:20;;;;;;;70.57;63.35;;;22.10;99.90;;;;;;5016807;28;20172;-60
2023/09/12 01:27:48;;;;;;;72.05;64.40;;;22.00;99.90;;;;;;5021403;28;20045;-60
2023/09/12 01:30:18;;;;;;;72.72;64.82;;;21.10;99.90;;;;;;5013094;28;20041;-60
2023/09/12 01:32:44;;;;;;;72.38;64.68;;;21.10;99.90;;;;;;5013119;28;20160;-59
2023/09/12 01:35:10;;;;;;;75.80;67.47;;;21.00;99.90;;;;;;5030769;28;20542;-59
2023/09/12 01:37:35;;;;;;;74.60;66.85;;;21.00;99.90;;;;;;5029544;28;20380;-61
2023/09/12 01:40:02;;;;;;;73.13;65.80;;;21.00;99.90;;;;;;5023455;28;20045;-61
2023/09/12 01:42:33;;;;;;;73.82;65.88;;;21.90;99.90;;;;;;5046147;28;20042;-60
2023/09/12 01:45:00;;;;;;;72.00;64.07;;;21.30;99.90;;;;;;5032421;28;20044;-60
2023/09/12 01:47:28;;;;;;;72.65;65.32;;;21.30;99.90;;;;;;5031464;28;20109;-60
2023/09/12 01:49:56;;;;;;;72.50;64.93;;;20.90;99.90;;;;;;5032686;28;20487;-59
2023/09/12 01:52:23;;;;;;;70.72;63.03;;;21.70;99.90;;;;;;5050262;28;20356;-60
2023/09/12 01:54:49;;;;;;;73.95;66.47;;;21.00;99.90;;;;;;5038432;28;20404;-59
2023/09/12 01:57:15;;;;;;;72.72;65.13;;;20.90;99.90;;;;;;5033083;28;20037;-60
2023/09/12 01:59:42;;;;;;;73.72;65.72;;;21.80;99.90;;;;;;5031328;28;20523;-61
2023/09/12 02:02:07;;;;;;;78.15;69.63;;;21.10;99.90;;;;;;5032019;28;20086;-60
2023/09/12 02:04:33;;;;;;;74.35;66.63;;;21.80;99.90;;;;;;5032259;28;20120;-60
2023/09/12 02:06:58;;;;;;;70.97;63.92;;;20.90;99.90;;;;;;5032019;28;20044;-60
2023/09/12 02:09:24;;;;;;;70.47;63.33;;;21.50;99.90;;;;;;5031111;28;20049;-62
2023/09/12 02:11:52;;;;;;;70.82;63.50;;;21.80;99.90;;;;;;5041827;28;20038;-60
2023/09/12 02:14:20;;;;;;;69.63;62.47;;;21.60;99.90;;;;;;5032237;28;20038;-59
2023/09/12 02:16:46;;;;;;;71.72;62.13;;;21.30;99.90;;;;;;5030954;28;20527;-60
2023/09/12 02:19:11;;;;;;;69.00;61.83;;;20.80;99.90;;;;;;5031108;28;20245;-60
2023/09/12 02:21:37;;;;;;;69.90;62.70;;;20.80;99.90;;;;;;5031825;28;20041;-59
2023/09/12 02:24:03;;;;;;;68.13;61.30;;;19.50;99.90;;;;;;5032377;28;20138;-60
2023/09/12 02:26:28;;;;;;;69.45;62.75;;;20.20;99.90;;;;;;5042399;28;20036;-59
2023/09/12 02:28:54;;;;;;;72.45;62.47;;;20.20;99.90;;;;;;5029954;28;20060;-60
2023/09/12 02:31:19;;;;;;;66.63;60.15;;;20.10;99.90;;;;;;5031829;28;20046;-60
2023/09/12 02:33:45;;;;;;;64.95;58.60;;;20.90;99.90;;;;;;5031842;28;20041;-60
2023/09/12 02:36:10;;;;;;;65.45;58.80;;;20.30;99.90;;;;;;5031146;28;20042;-59
2023/09/12 02:38:36;;;;;;;64.25;58.17;;;20.00;99.90;;;;;;5030921;28;20037;-60
2023/09/12 02:41:02;;;;;;;68.47;55.08;;;20.90;99.90;;;;;;5026989;28;20706;-60
2023/09/12 02:43:28;;;;;;;123.68;54.53;;;20.50;99.90;;;;;;5028779;28;20384;-60
2023/09/12 02:45:54;;;;;;;63.47;55.70;;;20.80;99.90;;;;;;5031464;28;20052;-60
2023/09/12 02:48:20;;;;;;;63.13;56.83;;;20.60;99.90;;;;;;5023552;28;20033;-60
2023/09/12 02:50:45;;;;;;;62.42;56.35;;;19.60;99.90;;;;;;5011554;28;20045;-60
2023/09/12 02:53:11;;;;;;;61.50;55.20;;;20.20;99.90;;;;;;5014089;28;20076;-59
2023/09/12 02:55:40;;;;;;;61.25;55.25;;;20.00;99.90;;;;;;5029470;28;20050;-61
2023/09/12 02:58:06;;;;;;;61.20;54.97;;;20.50;99.90;;;;;;5030469;28;20096;-60
2023/09/12 03:00:31;;;;;;;62.28;56.17;;;19.50;99.90;;;;;;5029883;28;20503;-60
2023/09/12 03:02:57;;;;;;;63.25;56.90;;;20.40;99.90;;;;;;5017132;28;20163;-60
2023/09/12 03:05:22;;;;;;;64.70;58.33;;;19.40;99.90;;;;;;5011250;28;20052;-60
2023/09/12 03:07:48;;;;;;;66.15;59.85;;;19.70;99.90;;;;;;5012608;28;20034;-60
2023/09/12 03:10:14;;;;;;;63.10;56.85;;;19.70;99.90;;;;;;5012164;28;20037;-60
2023/09/12 03:12:40;;;;;;;64.60;54.47;;;19.80;99.90;;;;;;5046069;28;20047;-59
2023/09/12 03:15:06;;;;;;;60.15;54.10;;;20.10;99.90;;;;;;5050808;28;20068;-61
2023/09/12 03:17:32;;;;;;;63.20;57.13;;;19.30;99.90;;;;;;5049149;28;20040;-59
2023/09/12 03:19:58;;;;;;;64.05;57.47;;;20.40;99.90;;;;;;5030041;28;20571;-60
2023/09/12 03:22:24;;;;;;;65.75;58.92;;;20.40;99.90;;;;;;5030505;28;20034;-61
2023/09/12 03:24:49;;;;;;;66.38;59.90;;;20.50;99.90;;;;;;5046019;28;20068;-59
2023/09/12 03:27:15;;;;;;;66.32;59.40;;;19.40;99.90;;;;;;5038075;28;20135;-59
2023/09/12 03:29:40;;;;;;;63.20;57.13;;;19.90;99.90;;;;;;5029729;28;20065;-60
2023/09/12 03:32:06;;;;;;;58.60;52.50;;;20.60;99.90;;;;;;5028651;28;20517;-60
2023/09/12 03:34:32;;;;;;;55.70;50.15;;;20.30;99.90;;;;;;5035374;28;20443;-60
2023/09/12 03:36:57;;;;;;;57.35;51.55;;;20.40;99.90;;;;;;5049948;28;20473;-61
2023/09/12 03:39:23;;;;;;;57.42;52.10;;;19.20;99.90;;;;;;5034266;28;20115;-60
2023/09/12 03:41:48;;;;;;;59.45;54.08;;;20.30;99.90;;;;;;5026289;28;20034;-59
2023/09/12 03:44:14;;;;;;;60.17;54.35;;;20.30;99.90;;;;;;5027849;28;20305;-59
2023/09/12 03:46:39;;;;;;;60.00;53.95;;;19.30;99.90;;;;;;5029838;28;20406;-60
2023/09/12 03:49:05;;;;;;;63.97;57.17;;;20.10;99.90;;;;;;5029854;28;20499;-61
2023/09/12 03:51:31;;;;;;;66.82;60.15;;;20.30;99.90;;;;;;5028227;28;20069;-59
2023/09/12 03:53:56;;;;;;;64.13;57.40;;;20.00;99.90;;;;;;5030926;28;20172;-61
2023/09/12 03:56:22;;;;;;;66.80;59.75;;;19.20;99.90;;;;;;5029557;28;20065;-60
2023/09/12 03:58:48;;;;;;;67.00;60.22;;;19.20;99.90;;;;;;5029847;28;20128;-59
2023/09/12 04:01:14;;;;;;;69.65;62.22;;;19.20;99.90;;;;;;5028547;28;20140;-59
2023/09/12 04:03:39;;;;;;;70.10;62.88;;;19.60;99.90;;;;;;5029231;28;20041;-61
2023/09/12 04:06:05;;;;;;;70.75;63.60;;;20.50;99.90;;;;;;5030304;28;20033;-59
2023/09/12 04:08:32;;;;;;;71.18;63.75;;;19.90;99.90;;;;;;5032880;28;20162;-60
2023/09/12 04:10:57;;;;;;;73.63;65.50;;;19.40;99.90;;;;;;5026774;28;20331;-62
2023/09/12 04:13:23;;;;;;;73.68;66.03;;;20.00;99.90;;;;;;5029180;28;20246;-62
2023/09/12 04:15:48;;;;;;;72.05;64.53;;;19.80;99.90;;;;;;5026612;28;20041;-61
2023/09/12 04:18:14;;;;;;;70.97;63.80;;;20.30;99.90;;;;;;5029509;28;20048;-62
2023/09/12 04:20:39;;;;;;;69.32;62.42;;;20.30;99.90;;;;;;5031950;28;20069;-61
2023/09/12 04:23:05;;;;;;;70.93;63.42;;;19.50;99.90;;;;;;5032258;28;20034;-62
2023/09/12 04:25:31;;;;;;;70.20;62.80;;;20.40;99.90;;;;;;5028605;28;20045;-61
2023/09/12 04:27:56;;;;;;;70.95;63.70;;;19.20;99.90;;;;;;5029281;28;20064;-62
2023/09/12 04:30:22;;;;;;;73.60;65.85;;;19.60;99.90;;;;;;5029428;28;20045;-61
2023/09/12 04:32:47;;;;;;;76.95;65.95;;;20.30;99.90;;;;;;5026615;28;20395;-61
2023/09/12 04:35:13;;;;;;;78.72;66.38;;;20.30;99.90;;;;;;5027678;28;20099;-62
2023/09/12 04:37:39;;;;;;;79.25;70.05;;;20.20;99.90;;;;;;5022374;28;20029;-61
2023/09/12 04:40:06;;;;;;;77.32;68.05;;;20.40;99.90;;;;;;5038261;28;20033;-61
2023/09/12 04:42:32;;;;;;;77.68;69.15;;;19.50;99.90;;;;;;5029271;28;20550;-62
2023/09/12 04:44:57;;;;;;;77.32;67.47;;;19.50;99.90;;;;;;5029614;28;20041;-61
2023/09/12 04:47:23;;;;;;;80.28;68.05;;;19.30;99.90;;;;;;5028562;28;20048;-61
2023/09/12 04:49:49;;;;;;;77.28;68.97;;;20.30;99.90;;;;;;5029773;28;20049;-61
2023/09/12 04:52:14;;;;;;;87.93;68.47;;;19.50;99.90;;;;;;5025009;28;20050;-62
2023/09/12 04:54:40;;;;;;;94.40;71.28;;;20.30;99.90;;;;;;5036807;28;20730;-61
2023/09/12 04:57:06;;;;;;;92.70;71.95;;;19.60;99.90;;;;;;5041737;28;20033;-61
2023/09/12 04:59:31;;;;;;;80.75;69.40;;;20.50;99.90;;;;;;5029663;28;20451;-62
2023/09/12 05:01:57;;;;;;;82.63;69.78;;;19.40;99.90;;;;;;5018335;28;20053;-62
2023/09/12 05:04:22;;;;;;;78.50;69.22;;;19.90;99.90;;;;;;5021025;28;20470;-61
2023/09/12 05:06:48;;;;;;;80.32;68.25;;;20.40;99.90;;;;;;5025616;28;20513;-61
2023/09/12 05:09:14;;;;;;;75.60;66.72;;;20.80;99.90;;;;;;5021859;28;20041;-62
2023/09/12 05:11:39;;;;;;;73.70;65.45;;;20.80;99.90;;;;;;5028172;28;20048;-62
2023/09/12 05:14:05;;;;;;;78.93;65.97;;;19.50;99.90;;;;;;5027615;28;20057;-62
2023/09/12 05:16:31;;;;;;;79.88;66.32;;;19.60;99.90;;;;;;5028455;28;20403;-61
2023/09/12 05:18:56;;;;;;;79.00;66.82;;;20.90;99.90;;;;;;5029326;28;20415;-62
2023/09/12 05:21:22;;;;;;;78.90;68.63;;;21.00;99.90;;;;;;5027762;28;20563;-60
2023/09/12 05:23:47;;;;;;;86.45;68.20;;;20.50;99.90;;;;;;5032789;28;20063;-60
2023/09/12 05:26:13;;;;;;;79.95;70.22;;;19.60;99.90;;;;;;5032891;28;20725;-60
2023/09/12 05:28:39;;;;;;;80.13;69.05;;;20.80;99.90;;;;;;5031521;28;20040;-60
2023/09/12 05:31:04;;;;;;;79.13;68.88;;;19.80;99.90;;;;;;5022577;28;20192;-60
2023/09/12 05:33:30;;;;;;;83.60;70.05;;;21.50;99.90;;;;;;5032903;28;20080;-62
2023/09/12 05:35:55;;;;;;;82.32;69.95;;;20.00;99.90;;;;;;5038774;28;20417;-60
2023/09/12 05:38:21;;;;;;;89.85;71.68;;;20.90;99.90;;;;;;5026248;28;20041;-60
2023/09/12 05:40:49;;;;;;;83.22;69.80;;;20.20;99.90;;;;;;5031578;28;20048;-62
2023/09/12 05:43:15;;;;;;;88.50;72.38;;;21.90;99.90;;;;;;5044536;28;20061;-60
2023/09/12 05:45:41;;;;;;;85.13;70.07;;;20.50;99.90;;;;;;5024377;28;20488;-60
2023/09/12 05:48:07;;;;;;;88.65;69.63;;;21.20;99.90;;;;;;5030069;28;20040;-60
2023/09/12 05:50:32;;;;;;;93.53;73.07;;;21.30;99.90;;;;;;5031447;28;20037;-60
2023/09/12 05:52:58;;;;;;;83.75;67.28;;;20.70;99.90;;;;;;5026077;28;20642;-60
2023/09/12 05:55:24;;;;;;;92.45;70.45;;;22.80;99.90;;;;;;5023664;28;20400;-61
2023/09/12 05:57:53;;;;;;;94.68;68.43;;;21.10;99.90;;;;;;5031627;28;20037;-60
2023/09/12 06:00:19;;;;;;;80.47;63.80;;;22.00;99.90;;;;;;5031598;28;20042;-60
2023/09/12 06:02:45;;;;;;;91.43;68.30;;;22.50;99.90;;;;;;5025368;28;20137;-61
2023/09/12 06:05:11;;;;;;;89.60;66.72;;;22.90;99.90;;;;;;5024141;28;20183;-60
2023/09/12 06:07:38;;;;;;;87.50;68.38;;;22.70;99.90;;;;;;5013655;28;20794;-60
2023/09/12 06:10:04;;;;;;;87.82;65.43;;;22.90;99.90;;;;;;5029841;28;20055;-61
2023/09/12 06:12:32;;;;;;;83.45;65.95;;;23.40;99.90;;;;;;5027928;28;20050;-61
2023/09/12 06:14:58;;;;;;;82.10;65.55;;;23.30;99.90;;;;;;5040178;28;20476;-61
2023/09/12 06:17:24;;;;;;;83.15;62.25;;;23.60;99.90;;;;;;5028270;28;20508;-62
2023/09/12 06:19:50;;;;;;;77.13;63.65;;;21.60;99.90;;;;;;5025329;28;20502;-61
2023/09/12 06:22:17;;;;;;;72.07;61.22;;;22.10;99.90;;;;;;5029978;28;20050;-63
2023/09/12 06:24:43;;;;;;;71.00;61.47;;;22.10;99.90;;;;;;5027816;28;20053;-61
2023/09/12 06:27:09;;;;;;;73.10;59.40;;;22.10;99.90;;;;;;5027039;28;20068;-61
2023/09/12 06:29:35;;;;;;;65.47;58.17;;;22.10;99.90;;;;;;5022599;28;20417;-61
2023/09/12 06:32:02;;;;;;;64.70;57.65;;;23.40;99.90;;;;;;5027164;28;20055;-62
2023/09/12 06:34:27;;;;;;;66.28;59.20;;;23.80;99.90;;;;;;5029076;28;20054;-62
2023/09/12 06:36:53;;;;;;;68.57;58.85;;;24.10;99.90;;;;;;5024128;28;20045;-61
2023/09/12 06:39:19;;;;;;;69.22;58.30;;;23.50;99.90;;;;;;5027767;28;20053;-65
2023/09/12 06:41:44;;;;;;;66.25;56.75;;;23.60;99.90;;;;;;5028579;28;20549;-65
2023/09/12 06:44:10;;;;;;;60.85;54.53;;;22.70;99.90;;;;;;5021554;28;20041;-66
2023/09/12 06:46:37;;;;;;;64.05;56.03;;;24.40;99.90;;;;;;5025360;28;21578;-66
2023/09/12 06:49:03;;;;;;;63.03;56.22;;;23.10;99.90;;;;;;5023593;28;20036;-64
2023/09/12 06:51:28;;;;;;;58.30;51.95;;;24.40;99.90;;;;;;5022037;28;20050;-65
2023/09/12 06:53:54;;;;;;;63.00;53.45;;;23.60;99.90;;;;;;5028643;28;20072;-65
2023/09/12 06:56:21;;;;;;;60.33;53.17;;;23.00;99.90;;;;;;5023533;28;20672;-66
2023/09/12 06:58:47;;;;;;;63.63;54.50;;;23.20;99.90;;;;;;5029368;28;20172;-65
2023/09/12 07:01:13;;;;;;;62.22;54.35;;;23.20;99.90;;;;;;5025705;28;20071;-65
2023/09/12 07:03:38;;;;;;;61.63;54.83;;;24.00;99.90;;;;;;5022603;28;20045;-64
2023/09/12 07:06:05;;;;;;;63.60;56.75;;;24.30;99.90;;;;;;5024166;28;20037;-64
2023/09/12 07:08:31;;;;;;;65.25;55.60;;;23.50;99.90;;;;;;5023090;28;20037;-64
2023/09/12 07:10:57;;;;;;;66.38;55.25;;;24.20;99.90;;;;;;5025976;28;20049;-67
2023/09/12 07:13:23;;;;;;;68.95;55.30;;;24.50;99.90;;;;;;5022967;28;20152;-67
2023/09/12 07:15:52;;;;;;;61.47;55.00;;;23.20;99.90;;;;;;5024901;28;20076;-65
2023/09/12 07:18:19;;;;;;;60.58;54.05;;;24.50;99.90;;;;;;5029801;28;20045;-65
2023/09/12 07:20:45;;;;;;;61.47;54.20;;;24.10;99.90;;;;;;5019886;28;20049;-65
2023/09/12 07:23:11;;;;;;;58.95;52.60;;;23.60;99.90;;;;;;5024208;28;20048;-65
2023/09/12 07:25:41;;;;;;;64.35;54.75;;;23.70;99.90;;;;;;5025172;28;20037;-65
2023/09/12 07:28:08;;;;;;;67.53;53.88;;;23.80;99.90;;;;;;5027106;28;20407;-66
2023/09/12 07:30:33;;;;;;;65.88;54.38;;;23.70;99.90;;;;;;5025722;28;21351;-65
2023/09/12 07:32:59;;;;;;;60.78;52.85;;;24.30;99.90;;;;;;5025476;28;20060;-66
2023/09/12 07:35:24;;;;;;;65.45;53.45;;;23.20;99.90;;;;;;5024965;28;20132;-66
2023/09/12 07:37:50;;;;;;;61.22;54.38;;;23.50;99.90;;;;;;5018350;28;20041;-65
2023/09/12 07:40:16;;;;;;;68.20;56.38;;;24.40;99.90;;;;;;5026474;28;20087;-68
2023/09/12 07:42:43;;;;;;;70.22;56.22;;;23.40;99.90;;;;;;5020729;28;20496;-67
2023/09/12 07:45:09;;;;;;;66.97;54.67;;;23.60;99.90;;;;;;5026571;28;20083;-67
2023/09/12 07:47:34;;;;;;;61.35;54.00;;;23.20;99.90;;;;;;5027390;28;20400;-67
2023/09/12 07:50:00;;;;;;;66.38;54.45;;;23.70;99.90;;;;;;5027612;28;20041;-66
2023/09/12 07:52:26;;;;;;;63.20;53.25;;;24.60;99.90;;;;;;5023929;28;20380;-68
2023/09/12 07:54:56;;;;;;;62.10;54.13;;;23.50;99.90;;;;;;5020287;28;20042;-67
2023/09/12 07:57:23;;;;;;;60.97;53.05;;;23.60;99.90;;;;;;5027209;28;20388;-67
2023/09/12 07:59:48;;;;;;;67.05;54.95;;;23.80;99.90;;;;;;5027430;28;20428;-67
2023/09/12 08:02:14;;;;;;;64.05;54.25;;;24.70;99.90;;;;;;5021745;28;20060;-66
2023/09/12 08:04:39;;;;;;;59.97;53.42;;;24.90;99.90;;;;;;5024171;28;20037;-67
2023/09/12 08:07:05;;;;;;;55.72;47.63;;;25.00;99.90;;;;;;5021286;28;20096;-67
2023/09/12 08:09:55;;;;;;;48.42;43.28;;;24.10;99.90;;;;;;5021425;28;20494;-66
2023/09/12 08:12:22;;;;;;;44.05;39.45;;;24.40;99.90;;;;;;5028248;28;20049;-67
2023/09/12 08:14:48;;;;;;;46.05;41.08;;;25.00;99.90;;;;;;5024904;28;20537;-67
2023/09/12 08:17:14;;;;;;;42.65;37.47;;;26.00;99.90;;;;;;5022393;28;20042;-68
2023/09/12 08:19:40;;;;;;;44.42;38.47;;;25.70;99.90;;;;;;5025062;28;20076;-68
2023/09/12 08:22:07;;;;;;;39.25;35.22;;;26.20;99.90;;;;;;5026528;28;20057;-67
2023/09/12 08:24:33;;;;;;;38.22;34.22;;;26.70;99.90;;;;;;5025855;28;20038;-68
2023/09/12 08:26:59;;;;;;;37.47;33.58;;;27.40;99.90;;;;;;5026190;28;20064;-68
2023/09/12 08:29:25;;;;;;;35.55;31.73;;;27.30;99.90;;;;;;5022541;28;20388;-68
2023/09/12 08:31:52;;;;;;;33.55;30.13;;;27.50;99.90;;;;;;5025764;28;20772;-69
2023/09/12 08:34:18;;;;;;;33.38;29.98;;;27.60;99.90;;;;;;5025609;28;20033;-65
2023/09/12 08:36:43;;;;;;;34.05;30.52;;;27.40;99.90;;;;;;5023350;28;20269;-66
2023/09/12 08:39:14;;;;;;;30.85;27.58;;;27.30;99.90;;;;;;5024055;28;20048;-66
2023/09/12 08:41:40;;;;;;;31.02;27.83;;;27.10;99.90;;;;;;5015906;28;20045;-67
2023/09/12 08:44:06;;;;;;;39.78;35.80;;;26.60;99.90;;;;;;5024575;28;20045;-67
2023/09/12 08:46:32;;;;;;;43.15;37.70;;;26.40;99.90;;;;;;5024817;28;20041;-68
2023/09/12 08:48:58;;;;;;;37.65;32.55;;;26.10;99.90;;;;;;5018488;28;20037;-67
2023/09/12 08:51:24;;;;;;;37.95;33.83;;;26.30;99.90;;;;;;5025836;28;20060;-68
2023/09/12 08:53:50;;;;;;;36.30;30.73;;;26.60;99.90;;;;;;5051371;28;20043;-67
2023/09/12 08:56:18;;;;;;;33.13;29.63;;;26.60;99.90;;;;;;5027134;28;20057;-68
2023/09/12 08:58:44;;;;;;;38.53;33.53;;;26.90;99.90;;;;;;5024224;28;20247;-68
2023/09/12 09:01:15;;;;;;;38.90;34.35;;;26.70;99.90;;;;;;5029082;28;20571;-67
2023/09/12 09:03:43;;;;;;;35.88;32.03;;;26.70;99.90;;;;;;5026802;28;20058;-67
2023/09/12 09:06:11;;;;;;;34.40;30.80;;;26.80;81.00;;;;;;5030364;28;20053;-66
2023/09/12 09:08:38;;;;;;;35.60;32.00;;;26.70;1.00;;;;;;5029956;28;20446;-68
2023/09/12 09:11:05;;;;;;;34.80;31.27;;;26.80;99.90;;;;;;5026974;28;20033;-69
2023/09/12 09:13:31;;;;;;;32.47;29.40;;;26.80;99.90;;;;;;5027125;28;20499;-67
2023/09/12 09:16:18;;;;;;;32.80;29.30;;;26.70;99.90;;;;;;5029193;28;20037;-68
2023/09/12 09:18:58;;;;;;;38.08;33.22;;;26.60;28.80;;;;;;5028912;28;20102;-67
2023/09/12 09:21:26;;;;;;;35.40;30.63;;;26.60;1.00;;;;;;5027193;28;20102;-68
2023/09/12 09:23:54;;;;;;;33.28;30.08;;;26.30;99.90;;;;;;5029092;28;20041;-68
2023/09/12 09:26:20;;;;;;;40.38;33.53;;;26.30;99.90;;;;;;5024960;28;20120;-68
2023/09/12 09:29:06;;;;;;;36.10;32.42;;;25.90;99.90;;;;;;5029205;28;20045;-67
2023/09/12 09:31:33;;;;;;;31.92;28.95;;;25.80;1.00;;;;;;5025959;28;20057;-69
2023/09/12 09:33:59;;;;;;;34.58;30.88;;;25.40;1.00;;;;;;5028740;28;20094;-68
2023/09/12 09:36:25;;;;;;;32.95;29.85;;;25.40;1.00;;;;;;5029198;28;20037;-68
2023/09/12 09:38:51;;;;;;;34.65;31.25;;;25.30;99.90;;;;;;5024557;28;20091;-69
2023/09/12 09:41:20;;;;;;;37.45;33.33;;;25.10;99.90;;;;;;5020895;28;20049;-68
2023/09/12 09:43:45;;;;;;;36.33;32.55;;;25.30;1.00;;;;;;5027438;28;20038;-68
2023/09/12 09:46:16;;;;;;;34.28;30.90;;;25.00;99.90;;;;;;5026429;28;20573;-67
2023/09/12 09:48:49;;;;;;;36.42;32.75;;;24.80;1.00;;;;;;5029282;28;20068;-68
2023/09/12 09:51:14;;;;;;;36.33;32.65;;;24.70;99.90;;;;;;5027438;28;20452;-67
2023/09/12 09:53:40;;;;;;;35.97;32.47;;;24.90;99.90;;;;;;5028412;28;20764;-67
2023/09/12 09:56:13;;;;;;;37.50;33.80;;;24.80;99.90;;;;;;5024629;28;20045;-67
2023/09/12 09:58:52;;;;;;;37.40;33.75;;;24.60;99.90;;;;;;5029316;28;20049;-69
2023/09/12 10:01:21;;;;;;;35.70;32.30;;;24.40;99.90;;;;;;5026530;28;20053;-68
2023/09/12 10:03:48;;;;;;;39.42;35.20;;;24.40;99.90;;;;;;5027113;28;20037;-69
2023/09/12 10:06:16;;;;;;;38.33;34.58;;;24.40;99.90;;;;;;5028916;28;20136;-69
2023/09/12 10:08:45;;;;;;;35.33;31.88;;;24.70;99.90;;;;;;5025670;28;20029;-67
2023/09/12 10:11:15;;;;;;;33.20;29.60;;;24.60;99.90;;;;;;5022024;28;20128;-68
2023/09/12 10:13:49;;;;;;;33.22;30.00;;;24.80;99.90;;;;;;5026792;28;20480;-67
2023/09/12 10:16:16;;;;;;;32.30;29.13;;;24.50;99.90;;;;;;5027595;28;20045;-66
2023/09/12 10:18:55;;;;;;;32.88;29.85;;;24.60;99.90;;;;;;5025888;28;20048;-68
2023/09/12 10:21:29;;;;;;;30.45;27.73;;;24.80;99.90;;;;;;5028437;28;20041;-67
2023/09/12 10:23:57;;;;;;;31.17;28.48;;;24.60;99.90;;;;;;5027677;28;20061;-67
2023/09/12 10:26:24;;;;;;;31.35;28.55;;;24.60;99.90;;;;;;5027769;28;20038;-68
2023/09/12 10:28:51;;;;;;;32.78;29.77;;;24.70;99.90;;;;;;5027142;28;20145;-68
2023/09/12 10:31:18;;;;;;;28.42;26.02;;;25.00;99.90;;;;;;5026628;28;20072;-67
2023/09/12 10:33:46;;;;;;;25.42;23.08;;;24.80;99.90;;;;;;5021800;28;20088;-68
2023/09/12 10:36:13;;;;;;;28.20;25.70;;;24.80;99.90;;;;;;5025632;28;20093;-68
2023/09/12 10:38:44;;;;;;;27.85;25.38;;;24.90;99.90;;;;;;5027679;28;20434;-68
2023/09/12 10:41:11;;;;;;;27.02;24.73;;;24.80;99.90;;;;;;5021090;28;20041;-68
2023/09/12 10:43:39;;;;;;;28.73;26.38;;;25.00;99.90;;;;;;5025170;28;20130;-69
2023/09/12 10:46:05;;;;;;;26.63;24.35;;;24.70;99.90;;;;;;5028787;28;20403;-68
2023/09/12 10:48:32;;;;;;;28.83;26.42;;;24.80;99.90;;;;;;5024063;28;20048;-68
2023/09/12 10:51:01;;;;;;;29.15;26.65;;;24.60;99.90;;;;;;5028934;28;20078;-68
2023/09/12 10:53:30;;;;;;;31.65;28.25;;;24.70;99.90;;;;;;5032514;28;20085;-67
2023/09/12 10:56:00;;;;;;;29.40;26.48;;;24.60;99.90;;;;;;5026773;28;20454;-68
2023/09/12 10:58:26;;;;;;;27.67;25.38;;;24.50;99.90;;;;;;5024313;28;20119;-67
2023/09/12 11:01:26;;;;;;;26.02;23.73;;;25.00;99.90;;;;;;5021804;28;20049;-69
2023/09/12 11:03:52;;;;;;;22.65;20.48;;;25.00;99.90;;;;;;5026426;28;20148;-68
2023/09/12 11:06:29;;;;;;;25.33;23.23;;;24.90;99.90;;;;;;5024020;28;20513;-69
2023/09/12 11:09:13;;;;;;;25.92;23.73;;;24.80;1.00;;;;;;5022661;28;20352;-68
2023/09/12 11:11:43;;;;;;;25.05;22.85;;;24.60;1.00;;;;;;5026486;28;20176;-68
2023/09/12 11:14:09;;;;;;;23.25;21.25;;;24.80;99.90;;;;;;5023807;28;20050;-67
2023/09/12 11:16:35;;;;;;;24.02;22.00;;;24.80;99.90;;;;;;5025968;28;20045;-67
2023/09/12 11:19:15;;;;;;;25.25;23.23;;;24.80;20.10;;;;;;5026286;28;20144;-67
2023/09/12 11:21:43;;;;;;;28.48;25.48;;;24.60;99.90;;;;;;5024526;28;20083;-62
2023/09/12 11:24:09;;;;;;;25.85;23.67;;;24.70;99.90;;;;;;5026442;28;20107;-62
2023/09/12 11:26:34;;;;;;;23.50;21.33;;;24.80;99.90;;;;;;5026547;28;20073;-61
2023/09/12 11:29:13;;;;;;;25.85;23.55;;;24.90;99.90;;;;;;5022225;28;20045;-62
2023/09/12 11:31:42;;;;;;;23.70;21.63;;;25.10;99.90;;;;;;5021689;28;20052;-64
2023/09/12 11:34:10;;;;;;;22.13;19.95;;;25.00;74.00;;;;;;5023226;28;20049;-63
2023/09/12 11:36:42;;;;;;;23.23;21.17;;;25.00;13.50;;;;;;5028952;28;20391;-62
2023/09/12 11:39:25;;;;;;;21.48;19.48;;;25.10;1.00;;;;;;5024844;28;20056;-64
2023/09/12 11:41:51;;;;;;;21.45;19.50;;;25.30;1.00;;;;;;5025150;28;20061;-62
2023/09/12 11:44:18;;;;;;;26.08;23.48;;;25.20;99.90;;;;;;5024229;28;20041;-65
2023/09/12 11:46:46;;;;;;;24.63;22.42;;;25.10;9.40;;;;;;5026698;28;20045;-62
2023/09/12 11:49:13;;;;;;;23.02;21.08;;;25.10;99.90;;;;;;5023039;28;20497;-62
2023/09/12 11:51:53;;;;;;;26.05;23.73;;;25.10;99.90;;;;;;5025303;28;20056;-62
2023/09/12 11:54:26;;;;;;;26.63;24.08;;;25.00;99.90;;;;;;5023687;28;20042;-65
2023/09/12 11:56:59;;;;;;;23.17;21.05;;;25.10;99.90;;;;;;5024752;28;20056;-63
2023/09/12 11:59:29;;;;;;;25.63;23.08;;;25.00;99.90;;;;;;5055053;28;20067;-61
2023/09/12 12:01:55;;;;;;;27.00;24.33;;;25.00;99.90;;;;;;5024683;28;20128;-64
2023/09/12 12:04:23;;;;;;;23.38;20.85;;;25.40;71.80;;;;;;5023659;28;20049;-61
2023/09/12 12:06:50;;;;;;;23.70;21.55;;;25.30;1.00;;;;;;5024277;28;20494;-62
2023/09/12 12:09:19;;;;;;;23.33;21.23;;;25.30;99.90;;;;;;5028076;28;20033;-62
2023/09/12 12:11:47;;;;;;;22.00;19.92;;;25.10;99.90;;;;;;5024080;28;20056;-62
2023/09/12 12:14:15;;;;;;;20.15;18.52;;;25.00;94.40;;;;;;5023558;28;20045;-62
2023/09/12 12:16:45;;;;;;;21.10;19.05;;;25.10;99.90;;;;;;5021650;28;20076;-61
2023/09/12 12:19:12;;;;;;;24.30;21.88;;;25.20;1.00;;;;;;5025305;28;20448;-62
2023/09/12 12:21:41;;;;;;;22.80;20.90;;;25.20;1.00;;;;;;5026727;28;20034;-61
2023/09/12 12:24:17;;;;;;;24.58;22.00;;;25.10;93.10;;;;;;5026168;28;20087;-62
2023/09/12 12:26:46;;;;;;;24.58;22.13;;;25.30;1.00;;;;;;5028396;28;20033;-61
2023/09/12 12:29:13;;;;;;;22.90;20.40;;;25.20;1.00;;;;;;5024888;28;20468;-62